Time;durP1;ratioP1;P1;durP2;ratioP2;P2;SDS_P1;SDS_P2;PMS_P1;PMS_P2;Temp;Humidity;BMP_temperature;BMP_pressure;BME280_temperature;BME280_humidity;BME280_pressure;Samples;Min_cycle;Max_cycle;Signal;HPM_P1;HPM_P2
2023/02/22 00:01:49;;;;;;;7.90;2.50;;;4.70;99.90;;;4.49;76.02;100070.19;5023513;28;20203;-65
2023/02/22 00:04:20;;;;;;;7.33;2.33;;;4.60;99.90;;;4.45;75.99;100079.50;5009291;28;20216;-65
2023/02/22 00:06:49;;;;;;;7.10;2.47;;;4.60;99.90;;;4.38;75.74;100074.31;5019559;28;20720;-66
2023/02/22 00:09:20;;;;;;;7.17;2.33;;;4.50;99.90;;;4.33;75.82;100076.78;5024346;28;20291;-65
2023/02/22 00:11:50;;;;;;;8.73;2.67;;;4.40;99.90;;;4.27;75.93;100080.13;5023434;28;20282;-66
2023/02/22 00:14:20;;;;;;;3.87;2.40;;;4.40;99.90;;;4.22;76.81;100080.88;5012504;28;20219;-69
2023/02/22 00:16:49;;;;;;;6.57;2.60;;;4.30;99.90;;;4.15;76.29;100072.28;5015802;28;20257;-63
2023/02/22 00:19:17;;;;;;;6.37;2.60;;;4.30;99.90;;;4.11;76.21;100078.19;5006372;28;20242;-62
2023/02/22 00:21:51;;;;;;;8.27;2.33;;;4.30;99.90;;;4.06;76.95;100079.81;5014799;28;20258;-61
2023/02/22 00:24:22;;;;;;;5.63;2.37;;;4.20;99.90;;;4.01;76.94;100081.41;5010793;28;20220;-63
2023/02/22 00:26:55;;;;;;;8.77;3.10;;;4.10;99.90;;;3.96;76.47;100083.91;5015650;28;20215;-63
2023/02/22 00:29:24;;;;;;;6.03;2.93;;;4.10;99.90;;;3.94;77.05;100095.78;5017753;28;20227;-64
2023/02/22 00:31:53;;;;;;;8.07;2.43;;;4.00;99.90;;;3.91;76.67;100084.69;5015247;28;20207;-63
2023/02/22 00:34:23;;;;;;;9.53;2.80;;;4.00;99.90;;;3.90;76.89;100093.13;5003290;28;20234;-63
2023/02/22 00:36:51;;;;;;;7.07;2.07;;;4.00;99.90;;;3.85;77.21;100088.81;5014648;28;20243;-66
2023/02/22 00:39:20;;;;;;;7.20;2.23;;;4.00;99.90;;;3.84;76.91;100099.84;5017152;28;20210;-62
2023/02/22 00:41:48;;;;;;;8.33;2.53;;;3.90;99.90;;;3.82;76.85;100098.97;5015753;28;20208;-62
2023/02/22 00:44:18;;;;;;;8.87;2.90;;;3.90;99.90;;;3.78;77.23;100099.75;5012798;28;20227;-65
2023/02/22 00:46:46;;;;;;;6.60;2.97;;;3.90;99.90;;;3.77;76.54;100094.63;5016262;28;20254;-64
2023/02/22 00:49:15;;;;;;;5.63;2.03;;;3.80;99.90;;;3.74;77.15;100103.06;5015978;28;20215;-63
2023/02/22 00:51:44;;;;;;;5.30;2.73;;;3.90;99.90;;;3.72;76.74;100106.41;5011407;28;20211;-65
2023/02/22 00:54:13;;;;;;;8.80;2.53;;;3.80;99.90;;;3.67;76.63;100111.44;5002990;28;20219;-63
2023/02/22 00:56:41;;;;;;;8.07;2.50;;;3.70;99.90;;;3.63;77.32;100115.63;5008697;28;20219;-63
2023/02/22 00:59:09;;;;;;;5.37;2.57;;;3.80;99.90;;;3.61;76.82;100119.00;5001908;28;20208;-63
2023/02/22 01:01:39;;;;;;;5.67;2.47;;;3.70;99.90;;;3.56;77.06;100123.13;5014455;28;20207;-63
2023/02/22 01:04:08;;;;;;;8.10;2.77;;;3.70;99.90;;;3.51;77.27;100117.97;5012936;28;20747;-63
2023/02/22 01:06:36;;;;;;;6.03;2.53;;;3.70;99.90;;;3.47;77.15;100126.38;5015771;28;20208;-65
2023/02/22 01:09:06;;;;;;;10.07;3.50;;;3.60;99.90;;;3.44;78.20;100128.03;5002310;28;20203;-64
2023/02/22 01:11:35;;;;;;;10.30;2.87;;;3.60;99.90;;;3.38;77.38;100134.69;5006126;28;20212;-65
2023/02/22 01:14:03;;;;;;;7.20;3.43;;;3.50;99.90;;;3.34;77.67;100132.94;5012651;28;20211;-63
2023/02/22 01:16:31;;;;;;;8.50;3.17;;;3.50;99.90;;;3.34;78.18;100138.03;5014878;28;20215;-65
2023/02/22 01:19:01;;;;;;;7.90;3.33;;;3.50;99.90;;;3.33;78.14;100150.72;5016408;28;20211;-64
2023/02/22 01:21:30;;;;;;;9.87;3.33;;;3.50;99.90;;;3.31;78.15;100147.28;5013405;28;20558;-62
2023/02/22 01:23:58;;;;;;;8.93;3.20;;;3.50;99.90;;;3.26;77.58;100152.31;5014658;28;20227;-61
2023/02/22 01:26:27;;;;;;;8.90;2.90;;;3.40;99.90;;;3.26;77.82;100154.84;5009755;28;20235;-63
2023/02/22 01:28:55;;;;;;;6.80;2.60;;;3.40;99.90;;;3.27;78.71;100161.66;5000378;28;20300;-64
2023/02/22 01:31:24;;;;;;;9.97;2.87;;;3.40;99.90;;;3.28;78.64;100160.00;5001424;28;20211;-65
2023/02/22 01:33:52;;;;;;;7.90;3.10;;;3.40;99.90;;;3.30;78.85;100165.94;5004505;28;20212;-62
2023/02/22 01:36:22;;;;;;;9.67;3.43;;;3.50;99.90;;;3.34;79.18;100173.66;5015365;28;20226;-63
2023/02/22 01:38:50;;;;;;;11.60;3.17;;;3.30;99.90;;;3.38;78.79;100169.50;5013186;28;20649;-63
2023/02/22 01:41:19;;;;;;;7.00;3.10;;;3.50;99.90;;;3.41;78.70;100171.25;5008766;28;20242;-64
2023/02/22 01:43:48;;;;;;;9.93;3.23;;;3.60;99.90;;;3.43;78.98;100170.47;5007049;28;20294;-64
2023/02/22 01:46:23;;;;;;;5.87;2.90;;;3.60;99.90;;;3.45;78.51;100167.94;5014745;28;20215;-66
2023/02/22 01:48:57;;;;;;;11.10;3.33;;;3.60;99.90;;;3.49;77.77;100172.25;5015133;28;20239;-63
2023/02/22 01:51:30;;;;;;;10.20;3.17;;;3.60;99.90;;;3.51;77.49;100168.06;5015036;28;20562;-64
2023/02/22 01:54:06;;;;;;;7.17;2.90;;;3.70;99.90;;;3.52;77.41;100168.06;5001624;28;20314;-65
2023/02/22 01:56:39;;;;;;;10.03;3.37;;;3.70;99.90;;;3.54;78.41;100171.53;5008528;28;20203;-64
2023/02/22 01:59:12;;;;;;;9.10;3.50;;;3.70;99.90;;;3.54;77.43;100170.66;5016944;28;20249;-65
2023/02/22 02:01:43;;;;;;;7.40;3.53;;;3.70;99.90;;;3.55;77.71;100177.47;5012811;28;20196;-65
2023/02/22 02:04:16;;;;;;;8.07;3.33;;;3.70;99.90;;;3.53;77.62;100174.03;5011983;28;20691;-64
2023/02/22 02:06:47;;;;;;;11.10;3.03;;;3.70;99.90;;;3.55;77.57;100175.78;5013515;28;20728;-67
2023/02/22 02:09:24;;;;;;;11.37;3.47;;;3.70;99.90;;;3.55;77.58;100182.56;5012114;28;20207;-69
2023/02/22 02:11:53;;;;;;;8.80;3.40;;;3.70;99.90;;;3.55;77.17;100183.44;5011871;28;20207;-66
2023/02/22 02:14:22;;;;;;;11.30;3.63;;;3.70;99.90;;;3.54;77.39;100178.31;5011166;28;20509;-67
2023/02/22 02:16:54;;;;;;;11.13;3.33;;;3.70;99.90;;;3.55;76.86;100182.56;5012050;28;20211;-66
2023/02/22 02:19:37;;;;;;;7.30;3.07;;;3.70;99.90;;;3.55;76.99;100183.44;5013613;28;20257;-66
2023/02/22 02:22:30;;;;;;;7.23;2.70;;;3.80;99.90;;;3.55;77.03;100192.75;5030801;28;20223;-67
2023/02/22 02:25:40;;;;;;;8.23;2.77;;;3.70;99.90;;;3.53;76.60;100185.06;5036533;28;20242;-67
2023/02/22 02:28:42;;;;;;;3.87;2.80;;;3.70;99.90;;;3.50;76.20;100190.13;5036273;28;20199;-67
2023/02/22 02:32:10;;;;;;;6.80;2.90;;;3.70;99.90;;;3.43;75.84;100192.53;5036377;28;20366;-67
2023/02/22 02:34:49;;;;;;;5.87;2.90;;;3.60;99.90;;;3.35;76.08;100193.25;5020656;28;20206;-66
2023/02/22 02:37:32;;;;;;;6.40;3.30;;;3.50;99.90;;;3.29;75.86;100189.72;5009607;28;20202;-65
2023/02/22 02:40:17;;;;;;;7.37;3.20;;;3.40;99.90;;;3.24;76.10;100199.81;4997849;28;20679;-63
2023/02/22 02:42:56;;;;;;;7.63;3.00;;;3.30;99.90;;;3.22;76.02;100198.91;5011442;28;20200;-65
2023/02/22 02:45:32;;;;;;;7.63;3.73;;;3.40;99.90;;;3.25;76.62;100201.50;5011740;28;20215;-64
2023/02/22 02:48:03;;;;;;;5.73;2.90;;;3.40;99.90;;;3.23;76.16;100195.53;5013649;28;20324;-63
2023/02/22 02:50:40;;;;;;;8.70;2.73;;;3.40;99.90;;;3.25;76.26;100198.13;5012802;28;20207;-65
2023/02/22 02:53:10;;;;;;;5.33;2.60;;;3.40;99.90;;;3.26;76.36;100207.47;5007366;28;20607;-63
2023/02/22 02:55:38;;;;;;;7.67;2.77;;;3.40;99.90;;;3.23;76.76;100207.41;5010699;28;20219;-63
2023/02/22 02:58:08;;;;;;;11.20;3.13;;;3.40;99.90;;;3.23;76.51;100207.41;5013542;28;20710;-63
2023/02/22 03:00:41;;;;;;;7.53;2.57;;;3.40;99.90;;;3.25;76.29;100221.88;5012054;28;20203;-65
2023/02/22 03:03:46;;;;;;;7.37;2.83;;;3.30;99.90;;;3.27;76.13;100216.81;5012768;28;20214;-65
2023/02/22 03:07:02;;;;;;;10.20;2.93;;;3.40;99.90;;;3.32;76.59;100211.00;5013186;28;20213;-63
2023/02/22 03:09:53;;;;;;;8.20;3.00;;;3.50;99.90;;;3.35;76.46;100215.28;4997240;28;20230;-64
2023/02/22 03:12:43;;;;;;;7.13;3.13;;;3.50;99.90;;;3.38;76.15;100218.75;5002133;28;20210;-65
2023/02/22 03:15:27;;;;;;;6.67;2.87;;;3.50;99.90;;;3.42;75.84;100223.91;5013929;28;20203;-63
2023/02/22 03:18:06;;;;;;;7.23;3.10;;;3.50;99.90;;;3.42;75.62;100223.91;5012932;28;20207;-64
2023/02/22 03:20:45;;;;;;;8.50;2.80;;;3.50;99.90;;;3.41;75.67;100224.75;5014027;28;20207;-67
2023/02/22 03:23:24;;;;;;;7.77;2.67;;;3.50;99.90;;;3.41;75.64;100232.38;5013271;28;20199;-63
2023/02/22 03:26:01;;;;;;;7.10;3.10;;;3.50;99.90;;;3.44;75.47;100235.84;5010803;28;20251;-65
2023/02/22 03:28:32;;;;;;;7.97;3.00;;;3.50;99.90;;;3.44;75.11;100240.94;5000578;28;20235;-64
2023/02/22 03:31:05;;;;;;;10.37;3.50;;;3.60;99.90;;;3.44;75.21;100242.63;5014428;28;20623;-62
2023/02/22 03:33:39;;;;;;;7.50;2.90;;;3.50;99.90;;;3.43;75.86;100246.03;5015181;28;20241;-64
2023/02/22 03:36:15;;;;;;;5.53;2.90;;;3.60;99.90;;;3.45;75.89;100241.81;5013655;28;20691;-63
2023/02/22 03:38:47;;;;;;;6.20;2.63;;;3.60;99.90;;;3.46;75.89;100251.16;5001958;28;20215;-62
2023/02/22 03:41:22;;;;;;;5.90;2.87;;;3.60;99.90;;;3.47;75.58;100251.19;5014703;28;20261;-65
2023/02/22 03:43:56;;;;;;;5.27;2.27;;;3.60;99.90;;;3.47;75.98;100243.56;5008852;28;20273;-66
2023/02/22 03:46:25;;;;;;;3.40;2.10;;;3.60;99.90;;;3.47;75.71;100251.19;5013158;28;20286;-64
2023/02/22 03:48:59;;;;;;;5.03;2.43;;;3.60;99.90;;;3.46;75.57;100253.69;5014694;28;20226;-64
2023/02/22 03:51:28;;;;;;;4.93;2.90;;;3.60;99.90;;;3.44;75.89;100252.81;5012225;28;20199;-65
2023/02/22 03:53:59;;;;;;;6.07;2.80;;;3.50;99.90;;;3.44;76.56;100255.38;5015577;28;20660;-62
2023/02/22 03:56:34;;;;;;;7.80;2.73;;;3.50;99.90;;;3.46;76.65;100258.78;5011479;28;20207;-63
2023/02/22 03:59:05;;;;;;;3.03;1.83;;;3.60;99.90;;;3.47;75.78;100263.09;5016339;28;20234;-61
2023/02/22 04:01:34;;;;;;;5.23;2.50;;;3.60;99.90;;;3.43;76.12;100263.84;5009989;28;20200;-63
2023/02/22 04:04:03;;;;;;;5.87;2.00;;;3.50;99.90;;;3.44;77.04;100266.41;5015216;28;20211;-64
2023/02/22 04:06:32;;;;;;;3.90;2.00;;;3.60;99.90;;;3.43;76.72;100272.34;5005852;28;20263;-63
2023/02/22 04:09:02;;;;;;;5.17;2.07;;;3.60;99.90;;;3.37;77.12;100260.31;5013553;28;20200;-63
2023/02/22 04:11:31;;;;;;;7.07;2.20;;;3.50;99.90;;;3.42;76.87;100272.28;5014855;28;20235;-64
2023/02/22 04:14:00;;;;;;;3.47;2.10;;;3.50;99.90;;;3.43;76.37;100280.00;5016466;28;20207;-65
2023/02/22 04:16:29;;;;;;;4.53;2.23;;;3.50;99.90;;;3.44;76.32;100281.69;5010585;28;20231;-63
2023/02/22 04:18:57;;;;;;;5.17;2.20;;;3.50;99.90;;;3.46;77.13;100274.06;5014562;28;20218;-62
2023/02/22 04:21:26;;;;;;;3.63;2.50;;;3.60;99.90;;;3.44;76.97;100285.94;5015719;28;20253;-64
2023/02/22 04:23:54;;;;;;;2.30;1.60;;;3.60;99.90;;;3.34;76.28;100290.81;5016504;28;20211;-62
2023/02/22 04:26:24;;;;;;;4.20;1.67;;;3.50;99.90;;;3.19;76.44;100295.59;5016346;28;20254;-61
2023/02/22 04:28:53;;;;;;;5.93;2.10;;;3.30;99.90;;;3.08;76.10;100286.84;5017873;28;20223;-64
2023/02/22 04:31:21;;;;;;;3.40;1.87;;;3.30;99.90;;;3.02;77.44;100296.88;5018521;28;20226;-63
2023/02/22 04:33:49;;;;;;;3.83;1.80;;;3.20;99.90;;;2.96;76.48;100296.75;5008818;28;20230;-66
2023/02/22 04:36:18;;;;;;;1.73;1.33;;;3.10;99.90;;;2.89;76.70;100304.25;5015404;28;20618;-62
2023/02/22 04:38:46;;;;;;;2.33;1.47;;;3.10;99.90;;;2.84;75.89;100303.28;5006027;28;20269;-63
2023/02/22 04:41:16;;;;;;;1.87;1.20;;;3.00;99.90;;;2.78;76.11;100303.13;5010099;28;20211;-64
2023/02/22 04:43:47;;;;;;;3.53;1.50;;;3.00;99.90;;;2.74;76.07;100305.56;5016776;28;20214;-64
2023/02/22 04:46:16;;;;;;;1.57;1.33;;;2.90;99.90;;;2.70;75.23;100304.63;5016646;28;20304;-64
2023/02/22 04:48:44;;;;;;;2.10;1.27;;;2.90;99.90;;;2.69;75.75;100312.22;5015552;28;20219;-62
2023/02/22 04:51:13;;;;;;;1.37;1.13;;;2.90;99.90;;;2.66;75.18;100298.63;5017189;28;20234;-64
2023/02/22 04:53:41;;;;;;;1.47;1.30;;;2.80;99.90;;;2.65;74.79;100306.19;5011447;28;20230;-63
2023/02/22 04:56:10;;;;;;;2.30;1.70;;;2.80;99.90;;;2.63;74.59;100302.75;5015132;28;20203;-62
2023/02/22 04:58:38;;;;;;;2.50;1.30;;;2.80;99.90;;;2.61;74.79;100312.03;5017074;28;20266;-66
2023/02/22 05:01:08;;;;;;;1.10;1.00;;;2.80;99.90;;;2.57;74.52;100307.69;5013023;28;20243;-66
2023/02/22 05:03:38;;;;;;;1.20;1.10;;;2.70;99.90;;;2.56;74.63;100305.97;5013147;28;20665;-65
2023/02/22 05:06:07;;;;;;;1.73;1.40;;;2.70;99.90;;;2.55;74.14;100309.34;5013711;28;20408;-66
2023/02/22 05:08:35;;;;;;;1.87;1.20;;;2.70;99.90;;;2.56;75.25;100311.06;5012081;28;20215;-68
2023/02/22 05:11:05;;;;;;;1.80;1.03;;;2.70;99.90;;;2.54;74.08;100317.78;5011832;28;20211;-67
2023/02/22 05:13:33;;;;;;;2.20;1.70;;;2.70;99.90;;;2.53;75.16;100314.38;5011127;28;20207;-67
2023/02/22 05:16:02;;;;;;;3.63;2.63;;;2.70;99.90;;;2.52;75.04;100319.44;5014276;28;20203;-68
2023/02/22 05:18:32;;;;;;;2.03;1.50;;;2.70;99.90;;;2.54;74.80;100320.31;5011779;28;20672;-68
2023/02/22 05:21:00;;;;;;;2.03;1.53;;;2.70;99.90;;;2.57;73.99;100320.41;5013714;28;20214;-68
2023/02/22 05:23:29;;;;;;;1.20;1.10;;;2.70;99.90;;;2.62;75.01;100321.41;5013984;28;20207;-68
2023/02/22 05:25:57;;;;;;;2.20;1.30;;;2.80;99.90;;;2.65;74.09;100324.00;5012749;28;20227;-67
2023/02/22 05:28:26;;;;;;;1.40;1.30;;;2.80;99.90;;;2.66;73.71;100326.59;5009619;28;20765;-67
2023/02/22 05:30:54;;;;;;;3.43;1.20;;;2.80;99.90;;;2.66;74.05;100328.28;5010951;28;20203;-65
2023/02/22 05:33:23;;;;;;;2.30;1.27;;;2.80;99.90;;;2.67;74.26;100335.09;5013418;28;20195;-67
2023/02/22 05:35:54;;;;;;;1.63;1.50;;;2.80;99.90;;;2.69;74.33;100333.44;5015565;28;20679;-67
2023/02/22 05:38:23;;;;;;;2.63;2.13;;;2.80;99.90;;;2.72;74.25;100333.50;5014393;28;20755;-67
2023/02/22 05:40:51;;;;;;;2.67;1.60;;;2.90;99.90;;;2.73;73.11;100345.41;5014615;28;20246;-67
2023/02/22 05:43:20;;;;;;;2.17;1.77;;;2.80;99.90;;;2.73;72.99;100349.66;5013793;28;20660;-69
2023/02/22 05:45:48;;;;;;;1.53;1.13;;;2.80;99.90;;;2.74;nan;100342.03;5013911;28;20277;-64
2023/02/22 05:48:16;;;;;;;1.30;1.20;;;2.90;99.90;;;2.73;73.58;100340.34;5012214;28;20254;-64
2023/02/22 05:50:45;;;;;;;2.37;1.70;;;2.90;99.90;;;2.74;73.39;100347.13;5012104;28;20204;-63
2023/02/22 05:53:14;;;;;;;1.40;1.30;;;2.90;99.90;;;2.76;73.16;100354.78;5013145;28;20203;-63
2023/02/22 05:55:43;;;;;;;1.70;1.50;;;2.90;99.90;;;2.76;72.55;100358.22;5010079;28;20216;-64
2023/02/22 05:58:14;;;;;;;2.27;1.60;;;2.90;99.90;;;2.73;72.90;100353.06;5008042;28;20226;-67
2023/02/22 06:00:46;;;;;;;1.73;1.40;;;2.90;99.90;;;2.73;72.36;100362.38;5011112;28;20299;-64
2023/02/22 06:03:20;;;;;;;2.17;1.73;;;3.00;99.90;;;2.70;73.01;100362.28;5012746;28;20668;-65
2023/02/22 06:05:48;;;;;;;2.87;1.70;;;2.90;99.90;;;2.73;72.65;100370.00;5013760;28;20223;-65
2023/02/22 06:08:18;;;;;;;2.33;1.60;;;2.90;99.90;;;2.74;72.96;100367.50;5015496;28;20302;-66
2023/02/22 06:10:47;;;;;;;2.93;1.77;;;3.00;99.90;;;2.75;72.46;100374.28;5014160;28;20222;-69
2023/02/22 06:13:17;;;;;;;2.00;1.70;;;2.90;99.90;;;2.78;72.03;100378.59;5014711;28;20211;-67
2023/02/22 06:15:46;;;;;;;4.83;1.90;;;2.90;99.90;;;2.82;72.61;100380.41;5013283;28;20218;-67
2023/02/22 06:18:15;;;;;;;3.57;1.90;;;2.90;99.90;;;2.84;72.48;100381.31;5011874;28;20207;-65
2023/02/22 06:20:43;;;;;;;2.20;1.60;;;3.00;99.90;;;2.86;72.85;100385.59;5017909;28;20267;-67
2023/02/22 06:23:12;;;;;;;2.53;1.90;;;3.00;99.90;;;2.91;72.20;100390.81;5003856;28;20262;-65
2023/02/22 06:25:41;;;;;;;4.87;1.73;;;3.10;99.90;;;2.94;71.85;100395.09;5011318;28;20211;-65
2023/02/22 06:28:10;;;;;;;1.83;1.60;;;3.10;99.90;;;2.94;72.53;100401.06;5009886;28;20322;-66
2023/02/22 06:30:41;;;;;;;2.90;1.73;;;3.10;99.90;;;2.97;72.21;100397.72;5007221;28;20207;-66
2023/02/22 06:33:11;;;;;;;3.47;1.77;;;3.10;99.90;;;2.99;72.35;100401.19;5000400;28;20287;-66
2023/02/22 06:35:39;;;;;;;1.63;1.40;;;3.10;99.90;;;3.02;71.19;100408.88;5002629;28;20227;-66
2023/02/22 06:38:08;;;;;;;2.50;1.80;;;3.20;99.90;;;3.02;71.62;100408.88;5008969;28;20203;-65
2023/02/22 06:40:36;;;;;;;5.60;2.10;;;3.20;99.90;;;3.07;71.42;100418.38;5005598;28;20605;-65
2023/02/22 06:43:06;;;;;;;2.33;1.73;;;3.20;99.90;;;3.07;71.81;100414.97;5010817;28;20628;-68
2023/02/22 06:45:34;;;;;;;2.73;1.80;;;3.30;99.90;;;3.10;71.10;100423.53;5013593;28;20215;-64
2023/02/22 06:48:03;;;;;;;2.43;1.70;;;3.30;99.90;;;3.12;70.63;100428.66;5012497;28;20242;-62
2023/02/22 06:50:32;;;;;;;2.63;1.40;;;3.30;99.90;;;3.10;70.78;100426.09;5007629;28;20571;-69
2023/02/22 06:53:03;;;;;;;2.50;1.70;;;3.30;99.90;;;3.12;70.83;100431.19;5009488;28;20219;-64
2023/02/22 06:55:34;;;;;;;2.73;1.60;;;3.30;99.90;;;3.14;71.10;100430.44;5014326;28;20271;-67
2023/02/22 06:58:05;;;;;;;1.80;1.63;;;3.30;99.90;;;3.17;71.02;100432.19;5008505;28;20211;-67
2023/02/22 07:00:34;;;;;;;3.93;1.70;;;3.30;99.90;;;3.21;71.11;100430.59;5013323;28;20203;-66
2023/02/22 07:03:04;;;;;;;3.77;1.73;;;3.40;99.90;;;3.18;70.83;100431.38;5010296;28;21558;-63
2023/02/22 07:05:33;;;;;;;4.57;2.07;;;3.40;99.90;;;3.19;70.34;100432.22;5013096;28;20195;-66
2023/02/22 07:08:06;;;;;;;1.67;1.40;;;3.40;99.90;;;3.15;70.48;100436.38;5005765;28;20265;-67
2023/02/22 07:10:36;;;;;;;2.07;1.70;;;3.40;99.90;;;3.12;69.85;100441.38;5011956;28;20207;-67
2023/02/22 07:13:07;;;;;;;2.47;1.80;;;3.30;99.90;;;3.10;69.29;100445.59;5010717;28;20199;-65
2023/02/22 07:15:36;;;;;;;3.30;1.60;;;3.30;99.90;;;3.07;69.40;100448.06;5010728;28;20315;-66
2023/02/22 07:18:06;;;;;;;4.47;1.80;;;3.30;99.90;;;3.05;69.32;100450.53;5026185;28;20207;-67
2023/02/22 07:20:35;;;;;;;2.03;1.37;;;3.30;99.90;;;3.09;69.02;100446.41;5025915;28;20269;-67
2023/02/22 07:23:04;;;;;;;3.73;1.70;;;3.30;99.90;;;3.12;68.94;100451.56;5024543;28;20227;-66
2023/02/22 07:25:32;;;;;;;3.77;2.23;;;3.40;99.90;;;3.17;68.79;100444.03;5025513;28;20211;-67
2023/02/22 07:28:01;;;;;;;3.47;2.00;;;3.40;99.90;;;3.18;67.87;100443.22;5011650;28;20231;-66
2023/02/22 07:30:32;;;;;;;2.90;1.90;;;3.40;99.90;;;3.20;67.92;100451.75;5025605;28;20207;-67
2023/02/22 07:33:03;;;;;;;2.37;1.50;;;3.40;99.90;;;3.22;67.77;100442.47;5018334;28;20212;-66
2023/02/22 07:35:35;;;;;;;1.97;1.73;;;3.40;99.90;;;3.22;67.30;100443.34;5018627;28;20226;-66
2023/02/22 07:38:06;;;;;;;1.40;1.30;;;3.40;99.90;;;3.26;67.46;100446.81;5025711;28;20215;-64
2023/02/22 07:40:36;;;;;;;1.70;1.37;;;3.50;99.90;;;3.24;66.27;100446.81;5025999;28;20226;-66
2023/02/22 07:43:14;;;;;;;3.60;2.27;;;3.50;99.90;;;3.25;65.86;100445.09;5026130;28;20208;-67
2023/02/22 07:45:44;;;;;;;1.63;1.37;;;3.50;99.90;;;3.24;65.63;100449.34;5026064;28;20200;-65
2023/02/22 07:48:15;;;;;;;2.20;1.70;;;3.50;99.90;;;3.22;65.58;100445.03;5022831;28;20657;-67
2023/02/22 07:50:45;;;;;;;1.80;1.70;;;3.40;99.90;;;3.24;64.90;100444.25;5015243;28;20214;-66
2023/02/22 07:53:18;;;;;;;1.90;1.23;;;3.50;99.90;;;3.27;65.18;100451.09;5019871;28;20199;-68
2023/02/22 07:55:49;;;;;;;1.43;1.30;;;3.50;99.90;;;3.34;65.10;100453.81;5018559;28;20204;-64
2023/02/22 07:58:20;;;;;;;2.00;1.07;;;3.60;99.90;;;3.43;65.11;100448.09;5024236;28;20204;-66
2023/02/22 08:00:50;;;;;;;3.43;1.40;;;3.60;99.90;;;3.46;64.30;100444.75;5018383;28;20203;-66
2023/02/22 08:03:22;;;;;;;1.57;1.40;;;3.70;99.90;;;3.51;64.62;100445.72;5014061;28;20215;-70
2023/02/22 08:05:54;;;;;;;1.80;1.47;;;3.70;99.90;;;3.59;63.74;100445.06;5021241;28;20191;-65
2023/02/22 08:08:23;;;;;;;1.53;1.40;;;3.80;99.90;;;3.66;63.55;100451.19;5016249;28;20215;-69
2023/02/22 08:10:52;;;;;;;2.53;1.20;;;3.90;99.90;;;3.73;63.07;100442.00;5001321;28;20203;-67
2023/02/22 08:13:22;;;;;;;2.67;1.60;;;3.90;99.90;;;3.81;63.14;100446.41;5008545;28;21010;-66
2023/02/22 08:15:54;;;;;;;1.63;1.50;;;4.00;99.90;;;3.92;62.76;100453.44;5010589;28;20211;-67
2023/02/22 08:18:25;;;;;;;2.73;1.50;;;4.10;99.90;;;3.93;62.54;100450.91;5002984;28;20203;-69
2023/02/22 08:20:54;;;;;;;1.43;1.30;;;4.20;99.90;;;3.96;61.40;100457.78;5013761;28;20191;-71
2023/02/22 08:23:26;;;;;;;4.77;1.50;;;4.20;99.90;;;3.96;62.07;100457.78;5013803;28;20203;-68
2023/02/22 08:25:55;;;;;;;4.10;1.70;;;4.20;99.90;;;4.02;61.70;100460.47;5016950;28;20207;-65
2023/02/22 08:28:25;;;;;;;1.77;1.40;;;4.30;99.90;;;4.10;61.46;100461.50;5017252;28;20227;-63
2023/02/22 08:30:55;;;;;;;2.47;1.67;;;4.30;99.90;;;4.12;60.88;100467.47;5017321;28;20218;-66
2023/02/22 08:33:23;;;;;;;1.83;1.50;;;4.40;99.90;;;4.13;61.14;100466.66;5015183;28;20195;-65
2023/02/22 08:35:52;;;;;;;2.80;1.97;;;4.40;99.90;;;4.18;61.67;100462.50;5015947;28;20241;-66
2023/02/22 08:38:24;;;;;;;2.60;2.00;;;4.40;99.90;;;4.23;61.49;100471.09;5016248;28;20203;-66
2023/02/22 08:40:52;;;;;;;1.80;1.43;;;4.50;99.90;;;4.26;61.25;100466.06;5007210;28;20203;-66
2023/02/22 08:43:22;;;;;;;3.17;2.07;;;4.50;99.90;;;4.32;61.63;100475.56;5004622;28;20199;-64
2023/02/22 08:45:51;;;;;;;2.87;1.80;;;4.60;99.90;;;4.34;61.14;100474.78;5016624;28;20211;-65
2023/02/22 08:48:23;;;;;;;2.13;1.87;;;4.60;99.90;;;4.39;60.79;100474.00;5014614;28;20239;-66
2023/02/22 08:50:52;;;;;;;2.80;1.70;;;4.60;99.90;;;4.43;60.27;100478.34;5013320;28;20204;-65
2023/02/22 08:53:21;;;;;;;2.47;1.60;;;4.70;99.90;;;4.44;59.81;100480.91;5012618;28;20211;-65
2023/02/22 08:55:49;;;;;;;2.40;1.73;;;4.70;99.90;;;4.44;59.56;100485.16;5016637;28;20293;-66
2023/02/22 08:58:18;;;;;;;3.30;1.70;;;4.70;99.90;;;4.40;59.22;100478.25;5012294;28;20642;-65
2023/02/22 09:00:48;;;;;;;2.23;1.60;;;4.60;99.90;;;4.38;59.38;100487.56;5003982;28;20203;-65
2023/02/22 09:03:16;;;;;;;1.70;1.50;;;4.60;99.90;;;4.45;59.88;100486.84;5018985;28;20711;-67
2023/02/22 09:05:47;;;;;;;2.53;1.90;;;4.70;99.90;;;4.54;59.51;100489.59;5015987;28;20207;-63
2023/02/22 09:08:17;;;;;;;4.20;2.23;;;4.80;99.90;;;4.62;59.74;100495.72;5017830;28;20739;-65
2023/02/22 09:10:45;;;;;;;3.17;2.17;;;4.80;99.90;;;4.65;59.24;100489.81;5018512;28;20207;-66
2023/02/22 09:13:14;;;;;;;2.33;1.67;;;4.90;99.90;;;4.60;59.16;100497.38;5020653;28;20218;-65
2023/02/22 09:15:42;;;;;;;3.00;2.67;;;4.80;99.90;;;4.51;59.47;100492.94;5013646;28;20216;-66
2023/02/22 09:18:16;;;;;;;2.97;2.33;;;4.80;99.90;;;4.44;59.96;100491.09;5011532;28;20273;-64
2023/02/22 09:20:46;;;;;;;2.87;2.23;;;4.70;99.90;;;4.47;59.91;100495.41;5022798;28;20202;-65
2023/02/22 09:23:15;;;;;;;2.90;2.27;;;4.70;99.90;;;4.42;59.64;100494.44;5008835;28;20238;-65
2023/02/22 09:25:43;;;;;;;2.50;2.00;;;4.70;99.90;;;4.34;59.53;100490.06;5029157;28;20273;-66
2023/02/22 09:28:12;;;;;;;2.00;1.80;;;4.60;99.90;;;4.25;59.84;100494.09;5016653;28;20250;-70
2023/02/22 09:30:42;;;;;;;2.93;2.37;;;4.50;99.90;;;4.14;59.66;100496.44;5018131;28;20278;-67
2023/02/22 09:33:13;;;;;;;2.73;2.00;;;4.40;99.90;;;4.05;60.35;100496.22;5015242;28;20290;-65
2023/02/22 09:35:45;;;;;;;2.60;2.20;;;4.30;99.90;;;3.97;60.42;100501.16;5016471;28;20203;-64
2023/02/22 09:38:18;;;;;;;2.50;2.10;;;4.20;99.90;;;3.91;60.25;100503.56;5014350;28;20290;-67
2023/02/22 09:40:50;;;;;;;2.20;2.00;;;4.20;99.90;;;3.87;60.21;100506.88;5012388;28;20196;-66
2023/02/22 09:43:32;;;;;;;2.83;1.90;;;4.10;99.90;;;3.82;60.85;100511.84;5001670;28;20820;-65
2023/02/22 09:46:23;;;;;;;3.30;1.80;;;4.10;99.90;;;3.81;60.78;100504.19;5017155;28;20195;-65
2023/02/22 09:49:05;;;;;;;2.80;2.00;;;4.10;99.90;;;3.79;60.66;100508.38;5015867;28;20219;-65
2023/02/22 09:51:41;;;;;;;2.80;1.83;;;4.00;99.90;;;3.77;60.71;100497.28;5017764;28;20211;-67
2023/02/22 09:54:21;;;;;;;2.33;1.70;;;4.00;99.90;;;3.75;60.94;100502.34;5016913;28;20576;-67
2023/02/22 09:56:56;;;;;;;2.37;1.57;;;4.00;99.90;;;3.71;61.10;100510.75;5014061;28;20265;-67
2023/02/22 09:59:30;;;;;;;2.80;1.90;;;3.90;99.90;;;3.72;61.41;100522.69;5015966;28;20249;-64
2023/02/22 10:02:14;;;;;;;2.43;1.93;;;3.90;99.90;;;3.71;61.18;100520.06;5015958;28;20707;-65
2023/02/22 10:04:49;;;;;;;2.67;1.80;;;3.90;99.90;;;3.70;61.08;100528.56;5019284;28;20609;-67
2023/02/22 10:07:28;;;;;;;2.53;1.70;;;3.90;99.90;;;3.67;61.88;100523.38;5014765;28;20294;-66
2023/02/22 10:10:05;;;;;;;2.77;1.97;;;3.90;99.90;;;3.68;61.34;100525.09;5011110;28;20222;-67
2023/02/22 10:12:44;;;;;;;2.40;1.67;;;3.90;99.90;;;3.75;61.49;100532.91;5014542;28;20203;-68
2023/02/22 10:15:51;;;;;;;2.90;2.13;;;4.00;99.90;;;3.72;61.64;100535.44;5011619;28;20686;-65
2023/02/22 10:18:50;;;;;;;3.10;2.30;;;4.00;99.90;;;3.64;61.39;100544.53;5015076;28;20261;-65
2023/02/22 10:21:42;;;;;;;4.60;3.40;;;3.90;99.90;;;3.60;60.92;100537.66;5014127;28;20212;-63
2023/02/22 10:24:25;;;;;;;5.87;3.10;;;3.90;99.90;;;3.54;60.67;100545.16;5005510;28;20284;-64
2023/02/22 10:26:58;;;;;;;4.67;2.90;;;3.80;99.90;;;3.47;60.20;100536.50;5015688;28;20199;-66
2023/02/22 10:29:38;;;;;;;4.13;3.00;;;3.80;99.90;;;3.42;59.95;100557.56;5015152;28;20249;-64
2023/02/22 10:32:21;;;;;;;6.03;3.40;;;3.70;99.90;;;3.37;60.34;100550.69;5015534;28;20211;-64
2023/02/22 10:34:52;;;;;;;4.03;3.10;;;3.70;99.90;;;3.32;60.53;100548.84;5002655;28;20635;-66
2023/02/22 10:37:26;;;;;;;4.93;3.30;;;3.60;99.90;;;3.21;60.56;100547.72;5011826;28;20218;-65
2023/02/22 10:40:05;;;;;;;5.37;3.53;;;3.50;99.90;;;3.17;60.01;100556.97;5012713;28;20214;-63
2023/02/22 10:42:34;;;;;;;3.57;2.93;;;3.40;99.90;;;3.12;60.13;100558.50;5009303;28;20199;-64
2023/02/22 10:45:03;;;;;;;5.37;3.40;;;3.40;99.90;;;3.06;60.30;100558.34;5010928;28;20217;-64
2023/02/22 10:47:33;;;;;;;3.97;3.20;;;3.30;99.90;;;3.00;59.93;100565.81;5011749;28;20239;-66